Goch-Asperden Airport

EDLG · Nordrhein-Westfalen, Deutschland

METAR-Geschichte EDLG · Goch-Asperden Airport

Unten siehst du die METARs der letzten paar Tage. Wähle ein Jahr, um ältere METARs ab dem Jahr 2007 zu durchsuchen.

3. März 2024

Uhrzeit Code Wetter Temp. Sichtweite Wolkendecke Wind METAR/SPECI
05:50
V
9 °C 10 km+ - 110° 110° 8 kt METAR EDLV 030450Z 11008KT CAVOK 09/05 Q0999
05:20
V
9 °C 10 km+ - 110° 110° 8 kt METAR EDLV 030420Z 11008KT CAVOK 09/05 Q0999
04:50
V
10 °C 10 km+ - 110° 110° 8 kt METAR EDLV 030350Z 11008KT CAVOK 10/05 Q0999

2. März 2024

Uhrzeit Code Wetter Temp. Sichtweite Wolkendecke Wind METAR/SPECI
23:50
V
12 °C 10 km+ - 110° 110° 9 kt METAR EDLV 022250Z 11009KT CAVOK 12/05 Q0999
23:20
V
12 °C 10 km+ - 120° 120° 10 kt METAR EDLV 022220Z 12010KT CAVOK 12/04 Q0999
22:50
V
12 °C 10 km+ - 120° 120° 10 kt METAR EDLV 022150Z 12010KT CAVOK 12/04 Q0999
22:20
V
11 °C 10 km+ - 120° 120° 10 kt METAR EDLV 022120Z 12010KT CAVOK 11/04 Q0999
21:50
V
11 °C 10 km+ - 120° 120° 11 kt METAR EDLV 022050Z 12011KT CAVOK 11/04 Q0999
21:20
V
12 °C 10 km+ - 120° 120° 11 kt METAR EDLV 022020Z 12011KT CAVOK 12/04 Q0999
20:50
V
12 °C 10 km+ - 110° 110° 10 kt METAR EDLV 021950Z 11010KT CAVOK 12/04 Q0999
20:20
V
13 °C 10 km+ - 130° 130° 12 kt METAR EDLV 021920Z 13012KT CAVOK 13/04 Q0999
19:50
V
13 °C 10 km+ - 130° 130° 13 kt METAR EDLV 021850Z 13013KT CAVOK 13/04 Q0999
19:20
V
13 °C 10 km+ - 130° 130° 14 kt METAR EDLV 021820Z 13014KT CAVOK 13/04 Q0999
18:50
V
13 °C 10 km+ - 130° 130° 13 kt METAR EDLV 021750Z 13013KT CAVOK 13/04 Q0999
18:20
V
13 °C 10 km+ - 120° 120° 12 kt METAR EDLV 021720Z 12012KT CAVOK 13/05 Q0999
17:50
V
13 °C 10 km+ - 130° 130° 11 kt METAR EDLV 021650Z 13011KT CAVOK 13/05 Q0999
17:20
V
13 °C 10 km+ - 130° 130° 12 kt METAR EDLV 021620Z 13012KT CAVOK 13/05 Q0999
16:50
V
14 °C 10 km+ - 130° 130° 10 kt METAR EDLV 021550Z 13010KT 9999 FEW047 14/05 Q0999
16:20
V
13 °C 10 km+ - 110° 110° 13 kt METAR EDLV 021520Z 11013KT CAVOK 13/05 Q0999
15:50
V
13 °C 10 km+ - 130° 130° 11 kt METAR EDLV 021450Z 13011KT CAVOK 13/05 Q0999
15:20
V
13 °C 10 km+ - 130° 130° 11 kt METAR EDLV 021420Z 13011KT 100V160 CAVOK 13/04 Q1000
14:50
V
13 °C 10 km+ - 130° 130° 11 kt METAR EDLV 021350Z 13011KT CAVOK 13/04 Q1000
14:20
V
12 °C 10 km+ - 130° 130° 11 kt METAR EDLV 021320Z 13011KT CAVOK 12/03 Q1000
13:50
V
13 °C 10 km+ - 140° 140° 10 kt METAR EDLV 021250Z 14010KT 9999 FEW039 13/03 Q1000
13:20
V
13 °C 10 km+ - 130° 130° 10 kt METAR EDLV 021220Z 13010KT 100V170 9999 FEW042 13/03 Q1001
12:50
V
12 °C 10 km+ - 140° 140° 9 kt METAR EDLV 021150Z 14009KT CAVOK 12/03 Q1001
12:20
V
12 °C 10 km+ - 160° 160° 10 kt METAR EDLV 021120Z 16010KT 140V200 CAVOK 12/03 Q1001
11:50
V
11 °C 10 km+ - 170° 170° 11 kt METAR EDLV 021050Z 17011KT 150V210 CAVOK 11/03 Q1001
11:20
V
11 °C 10 km+ - 180° 180° 11 kt METAR EDLV 021020Z 18011KT 150V210 9999 FEW033 11/03 Q1001
10:50
V
10 °C 10 km+ - 170° 170° 12 kt METAR EDLV 020950Z 17012KT 9999 FEW032 10/03 Q1002
10:20
V
10 °C 10 km+ - 170° 170° 13 kt METAR EDLV 020920Z 17013KT 9999 FEW030 10/03 Q1001
09:50
V
10 °C 10 km+ - 170° 170° 11 kt METAR EDLV 020850Z 17011KT CAVOK 10/03 Q1001
09:20
V
9 °C 10 km+ - 180° 180° 10 kt METAR EDLV 020820Z 18010KT CAVOK 09/04 Q1001
08:50
V
8 °C 10 km+ - 170° 170° 5 kt METAR EDLV 020750Z 17005KT 9999 FEW029 08/04 Q1001
08:20
V
7 °C 10 km+ - 180° 180° 5 kt METAR EDLV 020720Z 18005KT 9999 FEW029 07/04 Q1001
07:50
V
7 °C 10 km+ - 180° 180° 5 kt METAR EDLV 020650Z 18005KT CAVOK 07/03 Q1001
07:20
V
7 °C 10 km+ - 170° 170° 6 kt METAR EDLV 020620Z 17006KT CAVOK 07/03 Q1000
06:50
V
7 °C 10 km+ - 160° 160° 5 kt METAR EDLV 020550Z 16005KT CAVOK 07/04 Q1000
06:20
V
7 °C 10 km+ - 170° 170° 5 kt METAR EDLV 020520Z 17005KT 140V200 CAVOK 07/04 Q1000
05:50
V
8 °C 10 km+ - 180° 180° 7 kt METAR EDLV 020450Z 18007KT 9999 FEW030 08/04 Q1000
05:20
V
8 °C 10 km+ - 190° 190° 8 kt METAR EDLV 020420Z 19008KT 160V220 9999 FEW023 08/03 Q1000
04:50
V
8 °C 10 km+ 4.300 ft 200° 200° 10 kt METAR EDLV 020350Z AUTO 20010KT 150V220 9999 // FEW022/// BKN043/// OVC070/// 08/04 Q1000
04:20
V
8 °C 10 km+ 4.200 ft 180° 180° 8 kt METAR EDLV 020320Z AUTO 18008KT 9999 // OVC042/// 08/03 Q1000
03:50
V
8 °C 10 km+ 3.200 ft 180° 180° 8 kt METAR EDLV 020250Z AUTO 18008KT 9999 // BKN032/// OVC040/// 08/04 Q1000
03:20
V
8 °C 10 km+ 3.200 ft 200° 200° 9 kt METAR EDLV 020220Z AUTO 20009KT 160V220 9999 // OVC032/// 08/04 Q1000
02:50
V
9 °C 10 km+ 3.200 ft 220° 220° 14 kt METAR EDLV 020150Z AUTO 22014KT 9999 // OVC032/// 09/04 Q1000
02:20
V
9 °C 10 km+ 3.700 ft 140° 140° 10 kt METAR EDLV 020120Z AUTO 14010KT 9999 // OVC037/// 09/03 Q0999
01:50
V
8 °C 10 km+ 8.600 ft 130° 130° 12 kt METAR EDLV 020050Z AUTO 13012KT 9999 // FEW044/// BKN086/// OVC098/// 08/03 Q0999
01:20
V
8 °C 10 km+ 9.400 ft 130° 130° 11 kt METAR EDLV 020020Z AUTO 13011KT 9999 // BKN094/// 08/03 Q0999
00:50
V
8 °C 10 km+ - 130° 130° 13 kt METAR EDLV 012350Z AUTO 13013KT 9999 // SCT140/// 08/03 Q0999
00:20
V
8 °C 10 km+ 14.000 ft 130° 130° 14 kt METAR EDLV 012320Z AUTO 13014KT 9999 // BKN140/// 08/02 Q0999

1. März 2024

Uhrzeit Code Wetter Temp. Sichtweite Wolkendecke Wind METAR/SPECI
23:50
V
9 °C 10 km+ 14.000 ft 130° 130° 12 kt METAR EDLV 012250Z AUTO 13012KT 9999 // FEW110/// BKN140/// OVC160/// 09/03 Q0999
23:20
V
9 °C 10 km+ - 120° 120° 13 kt METAR EDLV 012220Z 12013KT CAVOK 09/03 Q0999
22:50
V
9 °C 10 km+ - 130° 130° 12 kt METAR EDLV 012150Z 13012KT CAVOK 09/03 Q1000
22:20
V
9 °C 10 km+ - 130° 130° 13 kt METAR EDLV 012120Z 13013KT CAVOK 09/03 Q1000
21:50
V
8 °C 10 km+ - 120° 120° 11 kt METAR EDLV 012050Z 12011KT CAVOK 08/02 Q1000
21:20
V
9 °C 10 km+ - 120° 120° 11 kt METAR EDLV 012020Z 12011KT CAVOK 09/02 Q1000
20:50
V
9 °C 10 km+ - 130° 130° 9 kt METAR EDLV 011950Z 13009KT CAVOK 09/02 Q1001
20:20
V
9 °C 10 km+ - 130° 130° 9 kt METAR EDLV 011920Z 13009KT 9999 FEW048 09/02 Q1001
19:50
V
9 °C 10 km+ 4.500 ft 140° 140° 8 kt METAR EDLV 011850Z 14008KT 9999 BKN045 09/02 Q1001
19:20
V
10 °C 10 km+ - 150° 150° 9 kt METAR EDLV 011820Z 15009KT CAVOK 10/03 Q1001
18:50
V
10 °C 10 km+ - 160° 160° 8 kt METAR EDLV 011750Z 16008KT CAVOK 10/03 Q1001
18:20
V
10 °C 10 km+ - 170° 170° 9 kt METAR EDLV 011720Z 17009KT CAVOK 10/03 Q1001
17:50
V
11 °C 10 km+ - 170° 170° 11 kt METAR EDLV 011650Z 17011KT CAVOK 11/02 Q1001
17:20
V
11 °C 10 km+ - 170° 170° 12 kt METAR EDLV 011620Z 17012KT CAVOK 11/02 Q1001
16:50
V
11 °C 10 km+ - 170° 170° 11 - 23 kt METAR EDLV 011550Z 17011G23KT 140V200 9999 SCT045 11/02 Q1001
16:20
V
11 °C 10 km+ 4.600 ft 160° 160° 14 kt METAR EDLV 011520Z 16014KT 9999 BKN046 11/01 Q1001
15:50
V
11 °C 10 km+ 4.600 ft 160° 160° 14 kt METAR EDLV 011450Z 16014KT 9999 OVC046 11/01 Q1001
15:20
V
11 °C 10 km+ 4.700 ft 160° 160° 13 kt METAR EDLV 011420Z 16013KT 9999 OVC047 11/02 Q1002
14:50
V
11 °C 10 km+ 4.800 ft 160° 160° 13 kt METAR EDLV 011350Z 16013KT 9999 BKN048 11/02 Q1002
14:20
V
10 °C 10 km+ - 150° 150° 15 kt METAR EDLV 011320Z 15015KT CAVOK 10/03 Q1002
13:50
V
10 °C 10 km+ - 160° 160° 14 kt METAR EDLV 011250Z 16014KT 120V180 9999 FEW034 10/03 Q1002
13:20
V
10 °C 10 km+ - 160° 160° 14 kt METAR EDLV 011220Z 16014KT 9999 FEW031 10/03 Q1002
12:50
V
10 °C 10 km+ - 170° 170° 15 kt METAR EDLV 011150Z 17015KT 140V200 9999 FEW028 10/03 Q1003
12:20
M
9 °C 10 km+ 2.700 ft 170° 170° 12 kt METAR EDLV 011120Z 17012KT 140V200 9999 BKN027 BKN031 09/03 Q1003
11:50
M
9 °C 10 km+ 2.600 ft 190° 190° 10 kt METAR EDLV 011050Z 19010KT 9999 BKN026 09/03 Q1004
11:20
V
9 °C 10 km+ - 170° 170° 10 kt METAR EDLV 011020Z 17010KT 9999 FEW021 SCT024 09/03 Q1004
10:50
V
8 °C 10 km+ - 200° 200° 11 kt METAR EDLV 010950Z 20011KT 9999 FEW017 SCT020 08/04 Q1004
10:20
M
8 °C 10 km+ 1.500 ft 200° 200° 10 kt METAR EDLV 010920Z 20010KT 160V220 9999 BKN015 08/05 Q1004
09:50
V
7 °C 10 km+ - 200° 200° 9 kt METAR EDLV 010850Z 20009KT 170V230 9999 FEW012 07/04 Q1004
09:20
M
7 °C 10 km+ 1.200 ft 200° 200° 9 kt METAR EDLV 010820Z 20009KT 170V240 9999 SCT010 BKN012 OVC024 07/05 Q1004
08:50
M
7 °C 10 km+ 1.900 ft 210° 210° 8 kt METAR EDLV 010750Z 21008KT 9999 FEW010 OVC019 07/05 Q1004
08:20
M
7 °C 10 km+ 1.100 ft 220° 220° 7 kt METAR EDLV 010720Z 22007KT 9999 BKN011 OVC020 07/05 Q1003
07:50
M
7 °C 10 km+ 2.200 ft 230° 230° 7 kt METAR EDLV 010650Z 23007KT 9999 FEW012 SCT014 OVC022 07/05 Q1003
07:20
M
7 °C 10 km+ 1.800 ft 240° 240° 7 kt METAR EDLV 010620Z 24007KT 9999 FEW011 SCT013 OVC018 07/05 Q1003
06:50
V
7 °C 10 km+ 3.400 ft 240° 240° 9 kt METAR EDLV 010550Z 24009KT 210V270 9999 SCT011 SCT030 OVC034 07/05 Q1002
06:20
M
7 °C 6 km 1.500 ft 240° 240° 7 kt METAR EDLV 010520Z 24007KT 6000 -RA FEW013 BKN015 OVC024 07/05 Q1002
05:50
M
8 °C 9 km 1.700 ft 160° 160° 8 kt METAR EDLV 010450Z 16008KT 9000 -RA OVC017 08/05 Q1001
05:20
M
8 °C 10 km+ 1.900 ft 150° 150° 7 kt METAR EDLV 010420Z 15007KT 9999 BKN019 BKN028 OVC042 08/05 Q1001
04:50
V
7 °C 10 km+ - 150° 150° 7 kt METAR EDLV 010350Z 15007KT 9999 FEW030 SCT038 07/05 Q1001
04:20
V
7 °C 10 km+ - 150° 150° 8 kt METAR EDLV 010320Z AUTO 15008KT 9999 // FEW025/// 07/04 Q1001
03:50
M
7 °C 10 km+ 2.700 ft 140° 140° 7 kt METAR EDLV 010250Z AUTO 14007KT 9999 // BKN027/// BKN031/// 07/03 Q1001
03:20
V
8 °C 10 km+ 9.500 ft 140° 140° 8 kt METAR EDLV 010220Z AUTO 14008KT 9999 // SCT031/// BKN095/// BKN190/// 08/03 Q1001
02:50
V
8 °C 10 km+ 10.000 ft 140° 140° 8 kt METAR EDLV 010150Z AUTO 14008KT 9999 // FEW027/// BKN100/// BKN190/// 08/03 Q1002
02:20
M
9 °C 10 km+ 2.600 ft 140° 140° 9 kt METAR EDLV 010120Z AUTO 14009KT 9999 // OVC026/// 09/03 Q1002
01:50
M
9 °C 10 km+ 2.600 ft 150° 150° 8 kt METAR EDLV 010050Z AUTO 15008KT 9999 // OVC026/// 09/03 Q1002
01:20
M
9 °C 10 km+ 2.900 ft 140° 140° 8 kt METAR EDLV 010020Z AUTO 14008KT 9999 // FEW024/// BKN029/// OVC065/// 09/03 Q1002
00:50
M
9 °C 10 km+ 2.800 ft 150° 150° 9 kt METAR EDLV 292350Z AUTO 15009KT 9999 // BKN028/// OVC037/// 09/03 Q1002
00:20
M
9 °C 10 km+ 2.700 ft 150° 150° 8 kt METAR EDLV 292320Z AUTO 15008KT 120V180 9999 // FEW015/// BKN027/// OVC036/// 09/02 Q1003

29. Februar 2024

Uhrzeit Code Wetter Temp. Sichtweite Wolkendecke Wind METAR/SPECI
23:50
V
9 °C 10 km+ 3.200 ft 140° 140° 9 kt METAR EDLV 292250Z 14009KT 9999 OVC032 09/02 Q1003
23:20
M
9 °C 10 km+ 2.800 ft 140° 140° 9 kt METAR EDLV 292220Z 14009KT 9999 OVC028 09/03 Q1003
22:50
M
9 °C 10 km+ 2.700 ft 140° 140° 7 kt METAR EDLV 292150Z 14007KT 9999 OVC027 09/05 Q1003
22:20
M
9 °C 10 km+ 2.900 ft 140° 140° 9 kt METAR EDLV 292120Z 14009KT 9999 OVC029 09/05 Q1004
21:50
M
10 °C 10 km+ 2.500 ft 160° 160° 11 kt METAR EDLV 292050Z 16011KT 9999 FEW018 OVC025 10/04 Q1004
21:20
M
10 °C 10 km+ 2.600 ft 150° 150° 9 kt METAR EDLV 292020Z 15009KT 9999 OVC026 10/04 Q1004
20:50
M
10 °C 10 km+ 2.800 ft 150° 150° 7 kt METAR EDLV 291950Z 15007KT 9999 OVC028 10/04 Q1004
20:20
M
10 °C 10 km+ 2.700 ft 150° 150° 7 kt METAR EDLV 291920Z 15007KT 9999 OVC027 10/04 Q1005
19:50
V
10 °C 10 km+ 3.100 ft 150° 150° 7 kt METAR EDLV 291850Z 15007KT 9999 SCT026 OVC031 10/05 Q1005
19:20
M
10 °C 10 km+ 2.900 ft 140° 140° 7 kt METAR EDLV 291820Z 14007KT 9999 OVC029 10/05 Q1005
18:50
M
11 °C 10 km+ 2.800 ft 140° 140° 7 kt METAR EDLV 291750Z 14007KT 9999 OVC028 11/06 Q1005
18:20
M
11 °C 10 km+ 2.900 ft 140° 140° 6 kt METAR EDLV 291720Z 14006KT 9999 OVC029 11/06 Q1005
17:50
M
10 °C 10 km+ 2.900 ft 150° 150° 6 kt METAR EDLV 291650Z 15006KT 9999 BKN029 OVC037 10/06 Q1006
17:20
M
10 °C 10 km+ 2.800 ft 150° 150° 6 kt METAR EDLV 291620Z 15006KT 130V190 9999 -RA OVC028 10/06 Q1006
16:50
M
10 °C 10 km+ 2.800 ft 170° 170° 8 kt METAR EDLV 291550Z 17008KT 9999 -RA BKN028 BKN032 10/06 Q1006
16:20
V
10 °C 10 km+ 4.800 ft 160° 160° 8 kt METAR EDLV 291520Z 16008KT 9999 FEW027 SCT032 OVC048 10/06 Q1007
15:50
V
10 °C 10 km+ 4.600 ft 170° 170° 9 kt METAR EDLV 291450Z 17009KT 9999 FEW034 BKN046 10/06 Q1007
15:20
V
10 °C 10 km+ 4.600 ft 170° 170° 8 kt METAR EDLV 291420Z 17008KT 9999 -RA SCT025 BKN046 10/07 Q1008
14:50
M
9 °C 10 km+ 2.200 ft 170° 170° 10 kt METAR EDLV 291350Z 17010KT 9999 -RA BKN022 OVC031 09/07 Q1008
14:20
M
10 °C 10 km+ 2.200 ft 170° 170° 11 kt METAR EDLV 291320Z 17011KT 140V200 9999 -RA OVC022 10/06 Q1009
13:50
M
10 °C 10 km+ 2.100 ft 160° 160° 8 kt METAR EDLV 291250Z 16008KT 9999 -RA OVC021 10/06 Q1009
13:20
M
10 °C 10 km+ 2.100 ft 160° 160° 8 kt METAR EDLV 291220Z 16008KT 9999 OVC021 10/06 Q1009
12:50
M
10 °C 10 km+ 2.100 ft 160° 160° 10 kt METAR EDLV 291150Z 16010KT 9999 OVC021 10/06 Q1010
12:20
M
9 °C 10 km+ 2.000 ft 160° 160° 10 kt METAR EDLV 291120Z 16010KT 9999 BKN020 09/05 Q1010